sensor_id;sensor_type;location;lat;lon;timestamp;temperature;humidity
30949;HTU21D;17637;51.984;21.208;2022-11-22T00:00:43;0.97;77.20
30949;HTU21D;17637;51.984;21.208;2022-11-22T00:03:11;0.24;77.32
30949;HTU21D;17637;51.984;21.208;2022-11-22T00:05:38;-2.46;77.30
30949;HTU21D;17637;51.984;21.208;2022-11-22T00:08:05;-0.45;77.69
30949;HTU21D;17637;51.984;21.208;2022-11-22T00:10:33;-0.57;77.54
30949;HTU21D;17637;51.984;21.208;2022-11-22T00:13:00;0.02;77.24
30949;HTU21D;17637;51.984;21.208;2022-11-22T00:15:28;0.51;77.49
30949;HTU21D;17637;51.984;21.208;2022-11-22T00:17:56;0.64;77.10
30949;HTU21D;17637;51.984;21.208;2022-11-22T00:20:23;-0.98;77.13
30949;HTU21D;17637;51.984;21.208;2022-11-22T00:22:51;-1.24;77.29
30949;HTU21D;17637;51.984;21.208;2022-11-22T00:25:18;-0.06;77.79
30949;HTU21D;17637;51.984;21.208;2022-11-22T00:27:45;0.17;77.79
30949;HTU21D;17637;51.984;21.208;2022-11-22T00:30:12;0.40;77.62
30949;HTU21D;17637;51.984;21.208;2022-11-22T00:32:39;-2.41;77.76
30949;HTU21D;17637;51.984;21.208;2022-11-22T00:35:07;-0.21;77.89
30949;HTU21D;17637;51.984;21.208;2022-11-22T00:37:34;-2.54;77.67
30949;HTU21D;17637;51.984;21.208;2022-11-22T00:40:01;-0.03;77.82
30949;HTU21D;17637;51.984;21.208;2022-11-22T00:42:28;0.00;77.92
30949;HTU21D;17637;51.984;21.208;2022-11-22T00:44:55;-0.16;77.73
30949;HTU21D;17637;51.984;21.208;2022-11-22T00:47:22;0.90;78.15
30949;HTU21D;17637;51.984;21.208;2022-11-22T00:49:49;-1.31;78.15
30949;HTU21D;17637;51.984;21.208;2022-11-22T00:52:16;0.08;78.09
30949;HTU21D;17637;51.984;21.208;2022-11-22T00:54:43;-0.73;78.13
30949;HTU21D;17637;51.984;21.208;2022-11-22T00:57:18;-0.51;78.16
30949;HTU21D;17637;51.984;21.208;2022-11-22T00:59:50;-0.25;78.03
30949;HTU21D;17637;51.984;21.208;2022-11-22T01:02:17;0.52;77.93
30949;HTU21D;17637;51.984;21.208;2022-11-22T01:04:44;-1.93;77.74
30949;HTU21D;17637;51.984;21.208;2022-11-22T01:07:14;-0.51;78.06
30949;HTU21D;17637;51.984;21.208;2022-11-22T01:09:41;0.91;78.21
30949;HTU21D;17637;51.984;21.208;2022-11-22T01:12:08;-2.85;77.87
30949;HTU21D;17637;51.984;21.208;2022-11-22T01:14:35;-0.55;78.38
30949;HTU21D;17637;51.984;21.208;2022-11-22T01:17:02;-1.39;78.30
30949;HTU21D;17637;51.984;21.208;2022-11-22T01:19:29;-1.74;78.48
30949;HTU21D;17637;51.984;21.208;2022-11-22T01:21:57;-3.27;78.29
30949;HTU21D;17637;51.984;21.208;2022-11-22T01:24:24;0.03;78.63
30949;HTU21D;17637;51.984;21.208;2022-11-22T01:26:51;0.61;78.93
30949;HTU21D;17637;51.984;21.208;2022-11-22T01:29:18;-1.89;78.77
30949;HTU21D;17637;51.984;21.208;2022-11-22T01:31:45;-0.17;78.57
30949;HTU21D;17637;51.984;21.208;2022-11-22T01:34:12;-0.19;78.68
30949;HTU21D;17637;51.984;21.208;2022-11-22T01:36:40;-5.87;77.82
30949;HTU21D;17637;51.984;21.208;2022-11-22T01:39:07;0.89;78.47
30949;HTU21D;17637;51.984;21.208;2022-11-22T01:41:34;-0.52;78.34
30949;HTU21D;17637;51.984;21.208;2022-11-22T01:44:30;0.85;78.44
30949;HTU21D;17637;51.984;21.208;2022-11-22T01:47:11;0.83;78.56
30949;HTU21D;17637;51.984;21.208;2022-11-22T01:52:16;0.88;78.60
30949;HTU21D;17637;51.984;21.208;2022-11-22T01:55:08;-0.71;78.32
30949;HTU21D;17637;51.984;21.208;2022-11-22T01:57:35;0.92;78.39
30949;HTU21D;17637;51.984;21.208;2022-11-22T02:00:08;-0.09;78.70
30949;HTU21D;17637;51.984;21.208;2022-11-22T02:02:36;-0.38;78.40
30949;HTU21D;17637;51.984;21.208;2022-11-22T02:05:07;0.67;78.69
30949;HTU21D;17637;51.984;21.208;2022-11-22T02:07:40;0.84;78.46
30949;HTU21D;17637;51.984;21.208;2022-11-22T02:10:11;-0.22;78.28
30949;HTU21D;17637;51.984;21.208;2022-11-22T02:12:39;-0.30;78.43
30949;HTU21D;17637;51.984;21.208;2022-11-22T02:15:07;0.87;78.45
30949;HTU21D;17637;51.984;21.208;2022-11-22T02:17:34;0.61;78.51
30949;HTU21D;17637;51.984;21.208;2022-11-22T02:20:02;-0.88;78.18
30949;HTU21D;17637;51.984;21.208;2022-11-22T02:25:23;0.92;78.57
30949;HTU21D;17637;51.984;21.208;2022-11-22T02:27:53;0.01;78.59
30949;HTU21D;17637;51.984;21.208;2022-11-22T02:30:21;-0.24;78.20
30949;HTU21D;17637;51.984;21.208;2022-11-22T02:32:48;-4.41;77.78
30949;HTU21D;17637;51.984;21.208;2022-11-22T02:35:21;-0.37;78.36
30949;HTU21D;17637;51.984;21.208;2022-11-22T02:37:53;-1.50;78.45
30949;HTU21D;17637;51.984;21.208;2022-11-22T02:40:23;0.34;78.48
30949;HTU21D;17637;51.984;21.208;2022-11-22T02:43:15;0.92;78.79
30949;HTU21D;17637;51.984;21.208;2022-11-22T02:45:42;0.95;78.52
30949;HTU21D;17637;51.984;21.208;2022-11-22T02:48:15;-1.16;78.35
30949;HTU21D;17637;51.984;21.208;2022-11-22T02:50:43;0.99;78.54
30949;HTU21D;17637;51.984;21.208;2022-11-22T02:53:11;1.00;78.57
30949;HTU21D;17637;51.984;21.208;2022-11-22T02:55:39;0.06;78.66
30949;HTU21D;17637;51.984;21.208;2022-11-22T02:58:06;0.21;78.64
30949;HTU21D;17637;51.984;21.208;2022-11-22T03:00:35;-0.80;78.65
30949;HTU21D;17637;51.984;21.208;2022-11-22T03:03:03;-3.89;78.64
30949;HTU21D;17637;51.984;21.208;2022-11-22T03:05:30;0.96;79.23
30949;HTU21D;17637;51.984;21.208;2022-11-22T03:08:00;-0.28;78.99
30949;HTU21D;17637;51.984;21.208;2022-11-22T03:10:27;-5.07;78.10
30949;HTU21D;17637;51.984;21.208;2022-11-22T03:12:56;0.98;78.68
30949;HTU21D;17637;51.984;21.208;2022-11-22T03:15:23;-0.16;78.62
30949;HTU21D;17637;51.984;21.208;2022-11-22T03:17:56;-0.39;78.56
30949;HTU21D;17637;51.984;21.208;2022-11-22T03:20:23;-1.41;78.63
30949;HTU21D;17637;51.984;21.208;2022-11-22T03:22:51;1.00;78.67
30949;HTU21D;17637;51.984;21.208;2022-11-22T03:25:18;-1.25;78.51
30949;HTU21D;17637;51.984;21.208;2022-11-22T03:27:48;-4.98;78.25
30949;HTU21D;17637;51.984;21.208;2022-11-22T03:30:15;-1.45;78.42
30949;HTU21D;17637;51.984;21.208;2022-11-22T03:32:42;-0.23;78.46
30949;HTU21D;17637;51.984;21.208;2022-11-22T03:35:09;-0.14;79.04
30949;HTU21D;17637;51.984;21.208;2022-11-22T03:37:36;-1.68;78.83
30949;HTU21D;17637;51.984;21.208;2022-11-22T03:40:04;0.95;78.93
30949;HTU21D;17637;51.984;21.208;2022-11-22T03:42:31;0.66;78.50
30949;HTU21D;17637;51.984;21.208;2022-11-22T03:44:58;-1.57;78.08
30949;HTU21D;17637;51.984;21.208;2022-11-22T03:47:25;-0.45;78.72
30949;HTU21D;17637;51.984;21.208;2022-11-22T03:49:52;-1.05;78.71
30949;HTU21D;17637;51.984;21.208;2022-11-22T03:52:19;0.99;78.86
30949;HTU21D;17637;51.984;21.208;2022-11-22T03:54:46;-0.12;78.52
30949;HTU21D;17637;51.984;21.208;2022-11-22T03:57:13;-0.21;78.39
30949;HTU21D;17637;51.984;21.208;2022-11-22T03:59:42;-1.42;79.05
30949;HTU21D;17637;51.984;21.208;2022-11-22T04:02:09;-0.62;78.77
30949;HTU21D;17637;51.984;21.208;2022-11-22T04:04:36;0.94;78.96
30949;HTU21D;17637;51.984;21.208;2022-11-22T04:07:03;0.19;78.82
30949;HTU21D;17637;51.984;21.208;2022-11-22T04:09:32;-1.93;78.55
30949;HTU21D;17637;51.984;21.208;2022-11-22T04:12:00;-0.47;78.49
30949;HTU21D;17637;51.984;21.208;2022-11-22T04:14:27;0.39;78.48
30949;HTU21D;17637;51.984;21.208;2022-11-22T04:17:13;-0.57;78.51
30949;HTU21D;17637;51.984;21.208;2022-11-22T04:19:40;-2.61;78.25
30949;HTU21D;17637;51.984;21.208;2022-11-22T04:22:27;0.13;78.41
30949;HTU21D;17637;51.984;21.208;2022-11-22T04:24:54;-3.74;78.02
30949;HTU21D;17637;51.984;21.208;2022-11-22T04:27:39;-0.97;78.81
30949;HTU21D;17637;51.984;21.208;2022-11-22T04:30:07;0.91;78.72
30949;HTU21D;17637;51.984;21.208;2022-11-22T04:32:34;-0.08;79.04
30949;HTU21D;17637;51.984;21.208;2022-11-22T04:35:14;-1.29;78.75
30949;HTU21D;17637;51.984;21.208;2022-11-22T04:37:42;0.04;78.76
30949;HTU21D;17637;51.984;21.208;2022-11-22T04:40:09;0.56;78.97
30949;HTU21D;17637;51.984;21.208;2022-11-22T04:42:36;0.75;78.63
30949;HTU21D;17637;51.984;21.208;2022-11-22T04:45:21;0.24;78.57
30949;HTU21D;17637;51.984;21.208;2022-11-22T04:47:48;0.02;78.60
30949;HTU21D;17637;51.984;21.208;2022-11-22T04:50:28;-5.95;78.10
30949;HTU21D;17637;51.984;21.208;2022-11-22T04:53:14;0.97;78.79
30949;HTU21D;17637;51.984;21.208;2022-11-22T04:55:44;0.98;78.62
30949;HTU21D;17637;51.984;21.208;2022-11-22T04:58:12;0.88;78.89
30949;HTU21D;17637;51.984;21.208;2022-11-22T05:00:40;-0.06;78.78
30949;HTU21D;17637;51.984;21.208;2022-11-22T05:03:07;-0.97;78.97
30949;HTU21D;17637;51.984;21.208;2022-11-22T05:05:39;0.82;79.37
30949;HTU21D;17637;51.984;21.208;2022-11-22T05:08:07;-0.98;79.04
30949;HTU21D;17637;51.984;21.208;2022-11-22T05:10:36;-0.41;78.76
30949;HTU21D;17637;51.984;21.208;2022-11-22T05:13:30;-0.54;78.65
30949;HTU21D;17637;51.984;21.208;2022-11-22T05:15:59;1.00;78.55
30949;HTU21D;17637;51.984;21.208;2022-11-22T05:18:27;0.99;78.34
30949;HTU21D;17637;51.984;21.208;2022-11-22T05:20:54;-1.38;78.35
30949;HTU21D;17637;51.984;21.208;2022-11-22T05:23:22;-0.39;78.47
30949;HTU21D;17637;51.984;21.208;2022-11-22T05:26:09;0.93;78.65
30949;HTU21D;17637;51.984;21.208;2022-11-22T05:28:37;0.98;78.67
30949;HTU21D;17637;51.984;21.208;2022-11-22T05:31:16;0.85;78.85
30949;HTU21D;17637;51.984;21.208;2022-11-22T05:33:44;-0.15;78.76
30949;HTU21D;17637;51.984;21.208;2022-11-22T05:36:12;-1.03;78.59
30949;HTU21D;17637;51.984;21.208;2022-11-22T05:38:40;-0.43;78.60
30949;HTU21D;17637;51.984;21.208;2022-11-22T05:41:09;0.95;78.68
30949;HTU21D;17637;51.984;21.208;2022-11-22T05:43:37;1.02;78.46
30949;HTU21D;17637;51.984;21.208;2022-11-22T05:46:12;0.98;78.67
30949;HTU21D;17637;51.984;21.208;2022-11-22T05:48:43;-3.35;78.16
30949;HTU21D;17637;51.984;21.208;2022-11-22T05:51:14;-0.94;78.37
30949;HTU21D;17637;51.984;21.208;2022-11-22T05:53:43;0.99;78.86
30949;HTU21D;17637;51.984;21.208;2022-11-22T05:56:13;1.03;78.59
30949;HTU21D;17637;51.984;21.208;2022-11-22T05:58:41;1.03;78.71
30949;HTU21D;17637;51.984;21.208;2022-11-22T06:01:14;1.03;78.54
30949;HTU21D;17637;51.984;21.208;2022-11-22T06:03:42;1.05;78.60
30949;HTU21D;17637;51.984;21.208;2022-11-22T06:06:10;-3.83;78.18
30949;HTU21D;17637;51.984;21.208;2022-11-22T06:08:39;0.26;78.44
30949;HTU21D;17637;51.984;21.208;2022-11-22T06:11:23;0.66;78.67
30949;HTU21D;17637;51.984;21.208;2022-11-22T06:13:53;-0.03;78.53
30949;HTU21D;17637;51.984;21.208;2022-11-22T06:16:21;-0.84;78.31
30949;HTU21D;17637;51.984;21.208;2022-11-22T06:18:48;1.12;78.70
30949;HTU21D;17637;51.984;21.208;2022-11-22T06:21:18;-1.61;78.27
30949;HTU21D;17637;51.984;21.208;2022-11-22T06:23:46;-5.15;78.18
30949;HTU21D;17637;51.984;21.208;2022-11-22T06:26:15;1.12;78.89
30949;HTU21D;17637;51.984;21.208;2022-11-22T06:28:44;1.13;78.70
30949;HTU21D;17637;51.984;21.208;2022-11-22T06:33:40;1.18;78.55
30949;HTU21D;17637;51.984;21.208;2022-11-22T06:36:12;1.11;78.84
30949;HTU21D;17637;51.984;21.208;2022-11-22T06:38:41;1.18;78.63
30949;HTU21D;17637;51.984;21.208;2022-11-22T06:41:13;1.16;78.80
30949;HTU21D;17637;51.984;21.208;2022-11-22T06:43:42;-1.50;78.45
30949;HTU21D;17637;51.984;21.208;2022-11-22T06:46:20;0.58;78.87
30949;HTU21D;17637;51.984;21.208;2022-11-22T06:48:48;1.15;78.54
30949;HTU21D;17637;51.984;21.208;2022-11-22T06:51:18;1.19;78.77
30949;HTU21D;17637;51.984;21.208;2022-11-22T06:53:46;1.09;78.85
30949;HTU21D;17637;51.984;21.208;2022-11-22T06:56:19;1.09;79.04
30949;HTU21D;17637;51.984;21.208;2022-11-22T06:58:47;0.96;79.34
30949;HTU21D;17637;51.984;21.208;2022-11-22T07:01:17;1.07;79.20
30949;HTU21D;17637;51.984;21.208;2022-11-22T07:03:45;-1.22;79.97
30949;HTU21D;17637;51.984;21.208;2022-11-22T07:06:14;-0.31;80.24
30949;HTU21D;17637;51.984;21.208;2022-11-22T07:08:43;0.97;80.41
30949;HTU21D;17637;51.984;21.208;2022-11-22T07:11:18;1.00;80.18
30949;HTU21D;17637;51.984;21.208;2022-11-22T07:13:47;-2.19;80.08
30949;HTU21D;17637;51.984;21.208;2022-11-22T07:16:17;1.02;80.53
30949;HTU21D;17637;51.984;21.208;2022-11-22T07:18:45;0.89;80.84
30949;HTU21D;17637;51.984;21.208;2022-11-22T07:21:21;-1.23;80.68
30949;HTU21D;17637;51.984;21.208;2022-11-22T07:23:50;0.99;80.69
30949;HTU21D;17637;51.984;21.208;2022-11-22T07:26:19;1.07;80.83
30949;HTU21D;17637;51.984;21.208;2022-11-22T07:28:47;-0.26;80.43
30949;HTU21D;17637;51.984;21.208;2022-11-22T07:31:15;0.18;80.38
30949;HTU21D;17637;51.984;21.208;2022-11-22T07:33:43;1.20;80.26
30949;HTU21D;17637;51.984;21.208;2022-11-22T07:38:38;-0.83;79.91
30949;HTU21D;17637;51.984;21.208;2022-11-22T07:41:06;1.16;80.29
30949;HTU21D;17637;51.984;21.208;2022-11-22T07:43:34;0.94;80.54
30949;HTU21D;17637;51.984;21.208;2022-11-22T07:46:03;-1.87;80.87
30949;HTU21D;17637;51.984;21.208;2022-11-22T07:48:31;-2.23;80.98
30949;HTU21D;17637;51.984;21.208;2022-11-22T07:51:03;0.09;81.20
30949;HTU21D;17637;51.984;21.208;2022-11-22T07:53:31;-4.67;80.55
30949;HTU21D;17637;51.984;21.208;2022-11-22T07:56:03;0.68;81.55
30949;HTU21D;17637;51.984;21.208;2022-11-22T07:58:31;-0.14;81.64
30949;HTU21D;17637;51.984;21.208;2022-11-22T08:01:09;0.80;81.88
30949;HTU21D;17637;51.984;21.208;2022-11-22T08:03:37;-2.21;81.54
30949;HTU21D;17637;51.984;21.208;2022-11-22T08:06:06;-2.15;81.76
30949;HTU21D;17637;51.984;21.208;2022-11-22T08:08:34;0.82;82.28
30949;HTU21D;17637;51.984;21.208;2022-11-22T08:11:02;0.99;81.89
30949;HTU21D;17637;51.984;21.208;2022-11-22T08:13:30;-0.46;81.15
30949;HTU21D;17637;51.984;21.208;2022-11-22T08:16:04;-0.25;80.98
30949;HTU21D;17637;51.984;21.208;2022-11-22T08:18:33;0.82;80.62
30949;HTU21D;17637;51.984;21.208;2022-11-22T08:21:10;-1.56;80.48
30949;HTU21D;17637;51.984;21.208;2022-11-22T08:23:38;0.23;79.96
30949;HTU21D;17637;51.984;21.208;2022-11-22T08:26:07;0.19;79.99
30949;HTU21D;17637;51.984;21.208;2022-11-22T08:28:35;1.10;79.87
30949;HTU21D;17637;51.984;21.208;2022-11-22T08:31:04;1.13;80.86
30949;HTU21D;17637;51.984;21.208;2022-11-22T08:33:32;1.08;81.28
30949;HTU21D;17637;51.984;21.208;2022-11-22T08:36:00;-0.31;80.98
30949;HTU21D;17637;51.984;21.208;2022-11-22T08:38:27;-0.29;81.05
30949;HTU21D;17637;51.984;21.208;2022-11-22T08:40:54;0.21;81.33
